createdAt,value
2023-04-15T00:00:59.961Z,1.85
2023-04-15T00:03:27.350Z,1.80
2023-04-15T00:05:54.317Z,1.80
2023-04-15T00:08:21.265Z,1.78
2023-04-15T00:10:48.078Z,1.83
2023-04-15T00:13:15.755Z,1.80
2023-04-15T00:15:43.412Z,1.79
2023-04-15T00:18:10.370Z,1.69
2023-04-15T00:20:37.878Z,1.69
2023-04-15T00:23:05.695Z,1.65
2023-04-15T00:25:33.182Z,1.68
2023-04-15T00:28:00.168Z,1.68
2023-04-15T00:30:27.008Z,1.67
2023-04-15T00:32:53.970Z,1.54
2023-04-15T00:35:22.806Z,1.45
2023-04-15T00:37:51.599Z,1.50
2023-04-15T00:40:19.828Z,1.52
2023-04-15T00:42:46.822Z,1.52
2023-04-15T00:45:14.275Z,1.50
2023-04-15T00:47:43.162Z,1.35
2023-04-15T00:50:10.907Z,1.36
2023-04-15T00:52:38.508Z,1.29
2023-04-15T00:55:06.184Z,1.38
2023-04-15T00:57:33.540Z,1.22
2023-04-15T01:00:01.172Z,1.25
2023-04-15T01:02:28.296Z,1.26
2023-04-15T01:04:56.869Z,1.24
2023-04-15T01:07:23.793Z,1.24
2023-04-15T01:09:51.662Z,1.16
2023-04-15T01:12:20.652Z,1.17
2023-04-15T01:14:48.170Z,1.12
2023-04-15T01:17:15.030Z,1.15
2023-04-15T01:19:42.176Z,1.12
2023-04-15T01:22:09.337Z,1.08
2023-04-15T01:24:38.517Z,1.06
2023-04-15T01:27:05.794Z,0.97
2023-04-15T01:29:33.266Z,0.96
2023-04-15T01:32:00.421Z,0.96
2023-04-15T01:34:46.292Z,0.93
2023-04-15T01:37:32.531Z,0.94
2023-04-15T01:39:59.871Z,0.96
2023-04-15T01:42:26.703Z,1.01
2023-04-15T01:44:53.983Z,0.93
2023-04-15T01:47:20.858Z,0.98
2023-04-15T01:49:48.051Z,0.97
2023-04-15T01:52:14.808Z,0.97
2023-04-15T01:54:42.635Z,0.90
2023-04-15T01:57:10.025Z,0.91
2023-04-15T01:59:37.541Z,0.84
2023-04-15T02:02:04.799Z,0.87
2023-04-15T02:04:31.876Z,0.87
2023-04-15T02:07:00.865Z,0.81
2023-04-15T02:09:28.191Z,0.87
2023-04-15T02:11:55.198Z,0.81
2023-04-15T02:14:22.289Z,0.82
2023-04-15T02:16:49.115Z,0.80
2023-04-15T02:19:16.282Z,0.80
2023-04-15T02:21:43.174Z,0.86
2023-04-15T02:24:09.953Z,0.80
2023-04-15T02:26:36.733Z,0.78
2023-04-15T02:29:03.811Z,0.74
2023-04-15T02:31:30.988Z,0.73
2023-04-15T02:33:59.095Z,0.62
2023-04-15T02:36:27.187Z,0.72
2023-04-15T02:38:53.936Z,0.73
2023-04-15T02:41:23.120Z,0.69
2023-04-15T02:43:50.068Z,0.76
2023-04-15T02:46:17.712Z,0.74
2023-04-15T02:48:44.500Z,0.79
2023-04-15T02:51:12.663Z,0.75
2023-04-15T02:53:39.499Z,0.79
2023-04-15T02:56:06.771Z,0.75
2023-04-15T02:58:34.978Z,0.83
2023-04-15T03:01:02.094Z,0.84
2023-04-15T03:03:29.237Z,0.74
2023-04-15T03:05:56.318Z,0.71
2023-04-15T03:08:23.200Z,0.75
2023-04-15T03:10:52.764Z,0.81
2023-04-15T03:13:20.307Z,0.88
2023-04-15T03:15:48.278Z,0.89
2023-04-15T03:18:15.089Z,0.89
2023-04-15T03:20:42.019Z,0.89
2023-04-15T03:23:09.290Z,0.80
2023-04-15T03:25:37.571Z,0.79
2023-04-15T03:28:06.635Z,0.85
2023-04-15T03:30:33.798Z,0.82
2023-04-15T03:33:00.646Z,0.90
2023-04-15T03:35:27.764Z,0.92
2023-04-15T03:37:54.571Z,0.94
2023-04-15T03:40:21.779Z,0.95
2023-04-15T03:42:48.584Z,0.98
2023-04-15T03:45:15.668Z,1.02
2023-04-15T03:47:43.131Z,1.05
2023-04-15T03:50:10.114Z,1.05
2023-04-15T03:52:37.087Z,1.03
2023-04-15T03:55:04.212Z,0.99
2023-04-15T03:57:31.361Z,1.02
2023-04-15T03:59:58.264Z,1.07
2023-04-15T04:02:26.082Z,1.10
2023-04-15T04:04:53.317Z,1.16
2023-04-15T04:07:20.130Z,1.21
2023-04-15T04:09:47.542Z,1.27
2023-04-15T04:12:14.724Z,1.26
2023-04-15T04:14:41.763Z,1.25
2023-04-15T04:17:08.855Z,1.25
2023-04-15T04:19:35.802Z,1.29
2023-04-15T04:22:02.693Z,1.32
2023-04-15T04:24:29.719Z,1.25
2023-04-15T04:26:57.398Z,1.34
2023-04-15T04:29:24.311Z,1.42
2023-04-15T04:31:51.383Z,1.49
2023-04-15T04:34:18.235Z,1.47
2023-04-15T04:36:45.279Z,1.65
2023-04-15T04:39:12.090Z,1.68
2023-04-15T04:41:38.844Z,1.76
2023-04-15T04:44:05.591Z,1.79
2023-04-15T04:46:32.382Z,1.82
2023-04-15T04:49:02.622Z,1.87
2023-04-15T04:51:37.868Z,1.89
2023-04-15T04:54:04.858Z,1.93
2023-04-15T04:56:31.737Z,1.96
2023-04-15T04:58:58.674Z,1.87
2023-04-15T05:01:27.700Z,1.84
2023-04-15T05:03:54.757Z,1.83
2023-04-15T05:06:22.131Z,1.78
2023-04-15T05:08:49.021Z,1.80
2023-04-15T05:11:16.069Z,1.88
2023-04-15T05:13:43.025Z,1.82
2023-04-15T05:16:09.926Z,1.90
2023-04-15T05:18:36.956Z,1.96
2023-04-15T05:21:04.137Z,2.08
2023-04-15T05:23:31.171Z,1.99
2023-04-15T05:25:58.156Z,1.98
2023-04-15T05:28:25.154Z,1.86
2023-04-15T05:30:52.344Z,1.90
2023-04-15T05:33:19.362Z,1.80
2023-04-15T05:35:46.421Z,1.89
2023-04-15T05:38:13.447Z,1.94
2023-04-15T05:40:40.406Z,2.00
2023-04-15T05:43:07.196Z,2.08
2023-04-15T05:45:34.120Z,2.25
2023-04-15T05:48:01.211Z,2.25
2023-04-15T05:50:28.258Z,2.16
2023-04-15T05:52:56.134Z,2.17
2023-04-15T05:55:23.215Z,2.25
2023-04-15T05:57:50.028Z,2.25
2023-04-15T06:00:16.929Z,2.42
2023-04-15T06:02:44.062Z,2.53
2023-04-15T06:05:12.148Z,2.67
2023-04-15T06:07:39.147Z,2.87
2023-04-15T06:10:06.280Z,3.07
2023-04-15T06:12:33.222Z,3.15
2023-04-15T06:15:00.446Z,3.28
2023-04-15T06:17:27.516Z,3.47
2023-04-15T06:25:59.906Z,3.47
2023-04-15T06:28:26.708Z,3.47
2023-04-15T06:30:54.039Z,3.54
2023-04-15T06:33:21.149Z,3.61
2023-04-15T06:35:49.736Z,3.66
2023-04-15T06:38:16.805Z,3.69
2023-04-15T06:40:43.634Z,3.59
2023-04-15T06:43:10.516Z,3.32
2023-04-15T06:45:37.690Z,3.63
2023-04-15T06:48:04.982Z,3.67
2023-04-15T06:50:31.991Z,3.58
2023-04-15T06:52:59.202Z,3.59
2023-04-15T06:55:26.040Z,3.36
2023-04-15T06:57:52.946Z,3.15
2023-04-15T07:00:20.499Z,3.30
2023-04-15T07:02:47.550Z,3.43
2023-04-15T07:05:14.448Z,3.34
2023-04-15T07:07:41.398Z,3.55
2023-04-15T07:10:08.607Z,3.76
2023-04-15T07:12:36.012Z,3.56
2023-04-15T07:15:03.722Z,3.70
2023-04-15T07:17:30.797Z,3.89
2023-04-15T07:19:57.747Z,4.02
2023-04-15T07:22:25.156Z,4.16
2023-04-15T07:24:51.914Z,4.02
2023-04-15T07:27:18.826Z,4.17
2023-04-15T07:29:45.785Z,4.29
2023-04-15T07:32:12.567Z,4.17
2023-04-15T07:34:39.540Z,4.18
2023-04-15T07:37:06.429Z,4.47
2023-04-15T07:39:33.474Z,4.60
2023-04-15T07:42:00.353Z,4.66
2023-04-15T07:44:27.752Z,4.79
2023-04-15T07:46:54.678Z,4.87
2023-04-15T07:49:21.580Z,5.07
2023-04-15T07:51:49.252Z,5.05
2023-04-15T07:54:16.472Z,4.90
2023-04-15T07:56:43.338Z,5.07
2023-04-15T07:59:10.552Z,4.99
2023-04-15T08:01:37.916Z,4.71
2023-04-15T08:04:05.132Z,4.63
2023-04-15T08:06:32.004Z,4.48
2023-04-15T08:08:58.850Z,4.59
2023-04-15T08:11:26.406Z,4.95
2023-04-15T08:13:53.308Z,4.88
2023-04-15T08:16:21.665Z,4.80
2023-04-15T08:18:49.773Z,4.73
2023-04-15T08:21:16.978Z,4.64
2023-04-15T08:23:44.111Z,4.59
2023-04-15T08:26:10.947Z,4.79
2023-04-15T08:28:42.251Z,4.91
2023-04-15T08:31:09.814Z,4.89
2023-04-15T08:33:37.037Z,5.02
2023-04-15T08:36:04.609Z,5.43
2023-04-15T08:38:32.473Z,5.40
2023-04-15T08:41:21.785Z,5.12
2023-04-15T08:43:53.496Z,4.90
2023-04-15T08:46:22.302Z,4.82
2023-04-15T08:48:50.158Z,4.83
2023-04-15T08:51:18.126Z,5.14
2023-04-15T08:53:46.759Z,5.50
2023-04-15T08:56:14.572Z,5.79
2023-04-15T08:58:41.718Z,5.77
2023-04-15T09:01:08.625Z,5.35
2023-04-15T09:03:35.850Z,5.25
2023-04-15T09:06:04.393Z,5.53
2023-04-15T09:08:31.764Z,5.82
2023-04-15T09:10:58.675Z,6.14
2023-04-15T09:13:25.685Z,6.12
2023-04-15T09:15:53.760Z,5.89
2023-04-15T09:18:31.275Z,6.20
2023-04-15T09:21:05.651Z,6.45
2023-04-15T09:23:33.451Z,6.64
2023-04-15T09:26:00.922Z,6.57
2023-04-15T09:28:28.667Z,6.67
2023-04-15T09:30:56.834Z,6.62
2023-04-15T09:33:23.890Z,6.79
2023-04-15T09:36:06.199Z,6.85
2023-04-15T09:38:33.332Z,7.09
2023-04-15T09:41:00.275Z,7.10
2023-04-15T09:43:40.133Z,7.29
2023-04-15T09:46:07.155Z,7.41
2023-04-15T09:48:34.252Z,7.47
2023-04-15T09:51:02.201Z,7.63
2023-04-15T09:53:31.246Z,7.62
2023-04-15T09:56:02.912Z,7.71
2023-04-15T09:58:31.133Z,7.83
2023-04-15T10:00:59.098Z,7.94
2023-04-15T10:03:30.072Z,7.87
2023-04-15T10:05:58.967Z,7.91
2023-04-15T10:08:29.657Z,7.92
2023-04-15T10:10:56.847Z,7.98
2023-04-15T10:13:24.515Z,8.22
2023-04-15T10:15:55.078Z,8.31
2023-04-15T10:18:23.821Z,8.37
2023-04-15T10:21:09.098Z,8.35
2023-04-15T10:23:36.277Z,8.43
2023-04-15T10:26:04.413Z,8.53
2023-04-15T10:28:31.592Z,8.42
2023-04-15T10:30:59.457Z,8.14
2023-04-15T10:33:27.360Z,8.28
2023-04-15T10:35:55.863Z,8.41
2023-04-15T10:38:35.051Z,8.42
2023-04-15T10:41:15.835Z,8.27
2023-04-15T10:43:57.995Z,8.17
2023-04-15T10:46:37.423Z,8.45
2023-04-15T10:49:08.517Z,8.66
2023-04-15T10:51:37.660Z,8.82
2023-04-15T10:54:08.856Z,8.94
2023-04-15T10:56:35.791Z,8.98
2023-04-15T10:59:24.189Z,9.15
2023-04-15T11:01:55.023Z,8.98
2023-04-15T11:04:42.576Z,9.27
2023-04-15T11:07:10.073Z,8.81
2023-04-15T11:09:37.777Z,8.66
2023-04-15T11:12:11.248Z,8.55
2023-04-15T11:14:42.226Z,8.81
2023-04-15T11:17:09.103Z,8.65
2023-04-15T11:19:36.710Z,8.54
2023-04-15T11:25:07.078Z,9.08
2023-04-15T11:27:33.880Z,9.09
2023-04-15T11:30:19.419Z,8.79
2023-04-15T11:32:46.321Z,9.05
2023-04-15T11:35:13.123Z,9.22
2023-04-15T11:37:40.256Z,9.27
2023-04-15T11:40:30.113Z,9.85
2023-04-15T11:43:07.316Z,10.31
2023-04-15T11:45:34.610Z,10.64
2023-04-15T11:48:06.510Z,10.76
2023-04-15T11:50:33.852Z,11.02
2023-04-15T11:53:06.278Z,11.17
2023-04-15T11:55:48.155Z,10.31
2023-04-15T11:58:34.771Z,10.24
2023-04-15T12:01:01.626Z,10.82
2023-04-15T12:03:38.846Z,10.52
2023-04-15T12:06:09.000Z,10.81
2023-04-15T12:08:56.299Z,11.06
2023-04-15T12:11:43.423Z,11.32
2023-04-15T12:14:11.685Z,11.65
2023-04-15T12:16:58.453Z,11.65
2023-04-15T12:19:45.624Z,11.25
2023-04-15T12:22:14.088Z,11.39
2023-04-15T12:25:02.899Z,11.07
2023-04-15T12:27:31.640Z,11.17
2023-04-15T12:30:05.477Z,10.89
2023-04-15T12:32:35.624Z,10.79
2023-04-15T12:35:02.483Z,11.13
2023-04-15T12:37:29.517Z,11.49
2023-04-15T12:39:56.492Z,11.76
2023-04-15T12:42:23.331Z,11.79
2023-04-15T12:44:50.256Z,11.82
2023-04-15T12:47:17.129Z,11.86
2023-04-15T12:50:02.791Z,11.83
2023-04-15T12:52:30.220Z,12.06
2023-04-15T12:54:57.047Z,12.08
2023-04-15T12:57:23.880Z,12.12
2023-04-15T12:59:50.840Z,12.08
2023-04-15T13:02:17.948Z,12.08
2023-04-15T13:04:44.993Z,12.05
2023-04-15T13:07:13.780Z,11.88
2023-04-15T13:09:59.371Z,12.02
2023-04-15T13:12:47.143Z,11.82
2023-04-15T13:15:14.007Z,11.86
2023-04-15T13:17:40.902Z,11.90
2023-04-15T13:20:08.981Z,11.97
2023-04-15T13:22:35.977Z,12.00
2023-04-15T13:25:21.726Z,12.05
2023-04-15T13:28:07.201Z,12.13
2023-04-15T13:30:34.076Z,12.15
2023-04-15T13:33:01.427Z,12.15
2023-04-15T13:35:28.393Z,11.99
2023-04-15T13:37:56.260Z,11.80
2023-04-15T13:40:23.178Z,11.49
2023-04-15T13:42:49.991Z,11.39
2023-04-15T13:45:17.041Z,11.33
2023-04-15T13:48:02.689Z,11.36
2023-04-15T13:50:29.652Z,11.58
2023-04-15T13:52:56.620Z,11.72
2023-04-15T13:55:26.114Z,11.92
2023-04-15T13:57:53.567Z,11.94
2023-04-15T14:00:20.628Z,11.78
2023-04-15T14:03:05.939Z,11.68
2023-04-15T14:05:56.106Z,11.42
2023-04-15T14:08:23.317Z,11.27
2023-04-15T14:10:50.404Z,11.25
2023-04-15T14:13:17.321Z,11.48
2023-04-15T14:16:02.874Z,11.70
2023-04-15T14:18:30.671Z,11.79
2023-04-15T14:20:57.678Z,11.78
2023-04-15T14:23:24.560Z,11.75
2023-04-15T14:25:52.308Z,11.84
2023-04-15T14:28:19.258Z,12.09
2023-04-15T14:30:46.139Z,12.20
2023-04-15T14:33:13.301Z,12.25
2023-04-15T14:35:40.318Z,12.30
2023-04-15T14:38:10.971Z,12.45
2023-04-15T14:40:38.340Z,12.54
2023-04-15T14:43:05.167Z,12.45
2023-04-15T14:45:50.551Z,12.56
2023-04-15T14:48:17.532Z,12.64
2023-04-15T14:50:44.436Z,12.56
2023-04-15T14:53:11.265Z,12.85
2023-04-15T14:55:38.153Z,12.79
2023-04-15T15:00:49.376Z,12.92
2023-04-15T15:03:16.918Z,12.97
2023-04-15T15:05:45.524Z,12.91
2023-04-15T15:08:13.155Z,12.73
2023-04-15T15:10:48.429Z,12.63
2023-04-15T15:13:17.035Z,12.56
2023-04-15T15:15:44.774Z,12.44
2023-04-15T15:18:21.176Z,12.30
2023-04-15T15:23:35.927Z,11.66
2023-04-15T15:26:02.771Z,11.62
2023-04-15T15:28:29.793Z,11.56
2023-04-15T15:30:56.837Z,11.45
2023-04-15T15:33:23.811Z,11.51
2023-04-15T15:35:50.994Z,11.52
2023-04-15T15:38:17.888Z,11.59
2023-04-15T15:40:44.776Z,11.65
2023-04-15T15:43:11.653Z,11.71
2023-04-15T15:45:38.586Z,11.72
2023-04-15T15:48:05.939Z,11.62
2023-04-15T15:50:32.827Z,11.63
2023-04-15T15:53:00.055Z,11.56
2023-04-15T15:55:27.340Z,11.49
2023-04-15T15:57:54.540Z,11.37
2023-04-15T16:00:22.960Z,11.26
2023-04-15T16:03:06.086Z,11.16
2023-04-15T16:05:33.555Z,10.92
2023-04-15T16:08:00.458Z,10.67
2023-04-15T16:10:27.394Z,10.42
2023-04-15T16:12:54.422Z,10.25
2023-04-15T16:15:22.203Z,10.13
2023-04-15T16:17:49.161Z,10.05
2023-04-15T16:20:16.054Z,9.83
2023-04-15T16:22:42.927Z,9.69
2023-04-15T16:25:28.986Z,9.56
2023-04-15T16:28:05.596Z,9.47
2023-04-15T16:30:39.515Z,9.31
2023-04-15T16:33:06.986Z,9.24
2023-04-15T16:35:35.118Z,9.19
2023-04-15T16:38:02.351Z,9.15
2023-04-15T16:40:47.725Z,9.11
2023-04-15T16:43:14.688Z,9.01
2023-04-15T16:45:41.718Z,9.00
2023-04-15T16:48:08.807Z,8.94
2023-04-15T16:50:36.614Z,8.90
2023-04-15T16:53:03.704Z,8.83
2023-04-15T16:55:30.532Z,8.79
2023-04-15T16:58:02.349Z,8.74
2023-04-15T17:00:31.450Z,8.73
2023-04-15T17:03:00.483Z,8.70
2023-04-15T17:05:27.782Z,8.70
2023-04-15T17:07:55.054Z,8.68
2023-04-15T17:10:23.139Z,8.66
2023-04-15T17:13:08.777Z,8.67
2023-04-15T17:15:35.831Z,8.70
2023-04-15T17:18:21.462Z,8.66
2023-04-15T17:21:02.662Z,8.67
2023-04-15T17:23:49.359Z,8.67
2023-04-15T17:26:20.081Z,8.63
2023-04-15T17:28:51.738Z,8.61
2023-04-15T17:31:25.653Z,8.60
2023-04-15T17:34:13.962Z,8.55
2023-04-15T17:36:42.736Z,8.55
2023-04-15T17:39:29.531Z,8.54
2023-04-15T17:42:17.070Z,8.48
2023-04-15T17:45:04.034Z,8.40
2023-04-15T17:47:51.034Z,8.34
2023-04-15T17:50:41.718Z,8.29
2023-04-15T17:53:28.990Z,8.23
2023-04-15T17:56:16.348Z,8.24
2023-04-15T17:59:03.680Z,8.19
2023-04-15T18:01:50.716Z,8.23
2023-04-15T18:04:37.836Z,8.24
2023-04-15T18:07:25.334Z,8.20
2023-04-15T18:10:13.489Z,8.17
2023-04-15T18:13:00.352Z,8.13
2023-04-15T18:15:49.213Z,8.11
2023-04-15T18:18:36.436Z,8.13
2023-04-15T18:21:03.701Z,8.13
2023-04-15T18:23:48.968Z,8.10
2023-04-15T18:26:15.889Z,8.07
2023-04-15T18:28:42.842Z,8.04
2023-04-15T18:31:11.161Z,8.00
2023-04-15T18:33:40.321Z,7.97
2023-04-15T18:36:13.929Z,7.88
2023-04-15T18:38:40.932Z,7.81
2023-04-15T18:41:26.625Z,7.73
2023-04-15T18:43:53.737Z,7.72
2023-04-15T18:46:20.827Z,7.69
2023-04-15T18:48:47.731Z,7.63
2023-04-15T18:51:15.201Z,7.60
2023-04-15T18:53:42.181Z,7.57
2023-04-15T18:56:09.001Z,7.58
2023-04-15T18:59:09.253Z,7.56
2023-04-15T19:01:23.525Z,7.48
2023-04-15T19:03:50.729Z,7.29
2023-04-15T19:06:17.542Z,7.28
2023-04-15T19:08:44.449Z,7.27
2023-04-15T19:11:11.505Z,7.22
2023-04-15T19:13:38.365Z,7.11
2023-04-15T19:16:05.401Z,7.04
2023-04-15T19:18:32.415Z,6.98
2023-04-15T19:21:17.888Z,6.92
2023-04-15T19:23:44.749Z,6.91
2023-04-15T19:26:12.301Z,6.91
2023-04-15T19:28:57.768Z,6.73
2023-04-15T19:31:25.893Z,6.70
2023-04-15T19:33:52.951Z,6.77
2023-04-15T19:36:20.179Z,6.81
2023-04-15T19:38:47.056Z,6.76
2023-04-15T19:41:13.927Z,6.69
2023-04-15T19:43:40.758Z,6.67
2023-04-15T19:46:07.812Z,6.63
2023-04-15T19:48:35.060Z,6.58
2023-04-15T19:51:20.417Z,6.60
2023-04-15T19:53:49.600Z,6.56
2023-04-15T19:56:16.547Z,6.52
2023-04-15T19:59:02.412Z,6.46
2023-04-15T20:01:48.200Z,6.46
2023-04-15T20:04:15.175Z,6.43
2023-04-15T20:06:42.110Z,6.49
2023-04-15T20:09:11.053Z,6.50
2023-04-15T20:12:48.132Z,6.43
2023-04-15T20:14:25.957Z,6.44
2023-04-15T20:17:11.795Z,6.41
2023-04-15T20:19:39.600Z,6.42
2023-04-15T20:22:06.414Z,6.43
2023-04-15T20:24:33.205Z,6.39
2023-04-15T20:27:00.804Z,6.37
2023-04-15T20:29:28.814Z,6.37
2023-04-15T20:31:56.510Z,6.29
2023-04-15T20:34:23.357Z,6.26
2023-04-15T20:36:50.203Z,6.27
2023-04-15T20:39:17.484Z,6.31
2023-04-15T20:41:44.401Z,6.31
2023-04-15T20:44:11.454Z,6.28
2023-04-15T20:46:38.448Z,6.30
2023-04-15T20:49:05.550Z,6.24
2023-04-15T20:51:38.682Z,6.25
2023-04-15T20:54:06.090Z,6.23
2023-04-15T20:56:33.185Z,6.24
2023-04-15T20:59:00.220Z,6.23
2023-04-15T21:01:27.195Z,6.07
2023-04-15T21:03:54.373Z,6.03
2023-04-15T21:06:22.447Z,5.99
2023-04-15T21:08:52.560Z,5.99
2023-04-15T21:11:36.881Z,5.94
2023-04-15T21:14:09.917Z,5.90
2023-04-15T21:16:36.791Z,5.88
2023-04-15T21:19:04.147Z,5.84
2023-04-15T21:21:32.187Z,5.84
2023-04-15T21:23:59.537Z,5.81
2023-04-15T21:26:26.467Z,5.83
2023-04-15T21:28:53.262Z,5.81
2023-04-15T21:31:20.687Z,5.89
2023-04-15T21:33:47.559Z,5.84
2023-04-15T21:36:14.358Z,5.79
2023-04-15T21:38:41.317Z,5.76
2023-04-15T21:41:09.798Z,5.73
2023-04-15T21:43:37.327Z,5.73
2023-04-15T21:46:22.441Z,5.70
2023-04-15T21:48:51.658Z,5.61
2023-04-15T21:51:18.535Z,5.56
2023-04-15T21:53:45.518Z,5.48
2023-04-15T21:56:12.444Z,5.36
2023-04-15T21:58:39.339Z,5.28
2023-04-15T22:01:06.478Z,5.27
2023-04-15T22:03:34.523Z,5.27
2023-04-15T22:06:02.645Z,5.30
2023-04-15T22:08:30.142Z,5.31
2023-04-15T22:10:57.856Z,5.32
2023-04-15T22:13:24.650Z,5.21
2023-04-15T22:15:51.590Z,5.25
2023-04-15T22:18:18.491Z,5.29
2023-04-15T22:20:45.698Z,5.21
2023-04-15T22:23:12.480Z,5.15
2023-04-15T22:25:39.348Z,5.04
2023-04-15T22:28:09.780Z,5.13
2023-04-15T22:30:40.806Z,5.12
2023-04-15T22:33:08.443Z,5.13
2023-04-15T22:35:37.657Z,5.13
2023-04-15T22:38:04.836Z,5.09
2023-04-15T22:40:31.775Z,5.09
2023-04-15T22:42:58.873Z,5.11
2023-04-15T22:45:25.866Z,5.12
2023-04-15T22:47:52.796Z,5.09
2023-04-15T22:50:19.642Z,5.09
2023-04-15T22:52:47.607Z,5.08
2023-04-15T22:55:14.532Z,5.02
2023-04-15T22:57:41.522Z,5.00
2023-04-15T23:00:09.372Z,5.01
2023-04-15T23:02:36.270Z,5.00
2023-04-15T23:05:11.463Z,5.00
2023-04-15T23:07:39.673Z,4.96
2023-04-15T23:10:07.109Z,4.92
2023-04-15T23:12:33.982Z,4.87
2023-04-15T23:15:00.925Z,4.86
2023-04-15T23:17:27.950Z,4.90
2023-04-15T23:19:54.827Z,4.79
2023-04-15T23:22:21.685Z,4.78
2023-04-15T23:24:48.500Z,4.69
2023-04-15T23:27:15.475Z,4.72
2023-04-15T23:29:42.256Z,4.69
2023-04-15T23:32:09.115Z,4.67
2023-04-15T23:34:36.239Z,4.71
2023-04-15T23:37:03.184Z,4.72
2023-04-15T23:39:30.642Z,4.74
2023-04-15T23:41:57.506Z,4.71
2023-04-15T23:44:24.441Z,4.66
2023-04-15T23:46:51.535Z,4.62
2023-04-15T23:49:20.240Z,4.62
2023-04-15T23:51:47.369Z,4.54
2023-04-15T23:54:14.654Z,4.51
2023-04-15T23:56:41.541Z,4.48
2023-04-15T23:59:08.594Z,4.46
